sensor_id;sensor_type;location;lat;lon;timestamp;P1;durP1;ratioP1;P2;durP2;ratioP2
25780;SDS011;13626;48.128;11.628;2023-07-24T00:01:53;9.45;;;6.57;;
25780;SDS011;13626;48.128;11.628;2023-07-24T00:04:20;10.93;;;7.00;;
25780;SDS011;13626;48.128;11.628;2023-07-24T00:06:48;10.43;;;6.55;;
25780;SDS011;13626;48.128;11.628;2023-07-24T00:09:15;11.02;;;6.90;;
25780;SDS011;13626;48.128;11.628;2023-07-24T00:11:42;12.30;;;7.60;;
25780;SDS011;13626;48.128;11.628;2023-07-24T00:14:09;9.18;;;6.40;;
25780;SDS011;13626;48.128;11.628;2023-07-24T00:16:37;8.45;;;5.88;;
25780;SDS011;13626;48.128;11.628;2023-07-24T00:19:04;9.55;;;6.45;;
25780;SDS011;13626;48.128;11.628;2023-07-24T00:21:31;8.85;;;6.38;;
25780;SDS011;13626;48.128;11.628;2023-07-24T00:23:58;9.38;;;6.25;;
25780;SDS011;13626;48.128;11.628;2023-07-24T00:26:26;10.88;;;6.63;;
25780;SDS011;13626;48.128;11.628;2023-07-24T00:28:53;9.98;;;6.60;;
25780;SDS011;13626;48.128;11.628;2023-07-24T00:31:21;9.38;;;6.53;;
25780;SDS011;13626;48.128;11.628;2023-07-24T00:33:48;10.02;;;6.85;;
25780;SDS011;13626;48.128;11.628;2023-07-24T00:36:15;8.98;;;6.22;;
25780;SDS011;13626;48.128;11.628;2023-07-24T00:38:42;9.60;;;6.82;;
25780;SDS011;13626;48.128;11.628;2023-07-24T00:41:10;8.70;;;6.40;;
25780;SDS011;13626;48.128;11.628;2023-07-24T00:43:37;9.70;;;6.20;;
25780;SDS011;13626;48.128;11.628;2023-07-24T00:46:04;16.15;;;6.45;;
25780;SDS011;13626;48.128;11.628;2023-07-24T00:48:31;9.13;;;6.10;;
25780;SDS011;13626;48.128;11.628;2023-07-24T00:50:59;7.63;;;5.72;;
25780;SDS011;13626;48.128;11.628;2023-07-24T00:53:26;10.18;;;6.63;;
25780;SDS011;13626;48.128;11.628;2023-07-24T00:55:54;9.50;;;6.60;;
25780;SDS011;13626;48.128;11.628;2023-07-24T00:58:21;9.00;;;6.05;;
25780;SDS011;13626;48.128;11.628;2023-07-24T01:00:49;7.88;;;5.65;;
25780;SDS011;13626;48.128;11.628;2023-07-24T01:03:16;8.65;;;5.82;;
25780;SDS011;13626;48.128;11.628;2023-07-24T01:05:44;11.25;;;6.40;;
25780;SDS011;13626;48.128;11.628;2023-07-24T01:08:11;10.32;;;6.35;;
25780;SDS011;13626;48.128;11.628;2023-07-24T01:10:38;8.68;;;6.07;;
25780;SDS011;13626;48.128;11.628;2023-07-24T01:13:08;10.32;;;6.53;;
25780;SDS011;13626;48.128;11.628;2023-07-24T01:15:42;10.57;;;5.75;;
25780;SDS011;13626;48.128;11.628;2023-07-24T01:18:11;11.23;;;7.15;;
25780;SDS011;13626;48.128;11.628;2023-07-24T01:20:43;8.65;;;6.30;;
25780;SDS011;13626;48.128;11.628;2023-07-24T01:25:53;8.93;;;6.05;;
25780;SDS011;13626;48.128;11.628;2023-07-24T01:28:21;8.48;;;6.18;;
25780;SDS011;13626;48.128;11.628;2023-07-24T01:30:49;9.63;;;6.00;;
25780;SDS011;13626;48.128;11.628;2023-07-24T01:33:16;8.48;;;6.22;;
25780;SDS011;13626;48.128;11.628;2023-07-24T01:35:43;8.43;;;5.82;;
25780;SDS011;13626;48.128;11.628;2023-07-24T01:38:14;8.73;;;6.03;;
25780;SDS011;13626;48.128;11.628;2023-07-24T01:40:41;10.52;;;6.95;;
25780;SDS011;13626;48.128;11.628;2023-07-24T01:43:09;11.02;;;6.78;;
25780;SDS011;13626;48.128;11.628;2023-07-24T01:45:36;10.05;;;6.40;;
25780;SDS011;13626;48.128;11.628;2023-07-24T01:48:03;10.82;;;6.90;;
25780;SDS011;13626;48.128;11.628;2023-07-24T01:50:31;12.48;;;6.40;;
25780;SDS011;13626;48.128;11.628;2023-07-24T01:52:59;8.88;;;6.35;;
25780;SDS011;13626;48.128;11.628;2023-07-24T01:55:26;9.88;;;5.90;;
25780;SDS011;13626;48.128;11.628;2023-07-24T01:57:53;8.57;;;6.30;;
25780;SDS011;13626;48.128;11.628;2023-07-24T02:00:20;9.63;;;6.43;;
25780;SDS011;13626;48.128;11.628;2023-07-24T02:02:48;12.10;;;6.75;;
25780;SDS011;13626;48.128;11.628;2023-07-24T02:05:15;8.13;;;6.03;;
25780;SDS011;13626;48.128;11.628;2023-07-24T02:07:42;9.95;;;6.45;;
25780;SDS011;13626;48.128;11.628;2023-07-24T02:10:10;10.57;;;6.38;;
25780;SDS011;13626;48.128;11.628;2023-07-24T02:12:37;10.48;;;6.15;;
25780;SDS011;13626;48.128;11.628;2023-07-24T02:15:04;9.77;;;6.25;;
25780;SDS011;13626;48.128;11.628;2023-07-24T02:17:31;10.77;;;5.85;;
25780;SDS011;13626;48.128;11.628;2023-07-24T02:19:59;9.25;;;6.57;;
25780;SDS011;13626;48.128;11.628;2023-07-24T02:22:26;8.40;;;5.78;;
25780;SDS011;13626;48.128;11.628;2023-07-24T02:24:53;9.55;;;6.57;;
25780;SDS011;13626;48.128;11.628;2023-07-24T02:27:24;10.02;;;6.30;;
25780;SDS011;13626;48.128;11.628;2023-07-24T02:29:52;10.15;;;6.80;;
25780;SDS011;13626;48.128;11.628;2023-07-24T02:32:20;8.77;;;5.47;;
25780;SDS011;13626;48.128;11.628;2023-07-24T02:34:52;9.48;;;6.32;;
25780;SDS011;13626;48.128;11.628;2023-07-24T02:37:19;10.13;;;6.88;;
25780;SDS011;13626;48.128;11.628;2023-07-24T02:39:46;9.65;;;6.05;;
25780;SDS011;13626;48.128;11.628;2023-07-24T02:42:13;9.07;;;6.40;;
25780;SDS011;13626;48.128;11.628;2023-07-24T02:44:41;9.70;;;6.75;;
25780;SDS011;13626;48.128;11.628;2023-07-24T02:47:08;11.38;;;7.20;;
25780;SDS011;13626;48.128;11.628;2023-07-24T02:49:36;8.70;;;6.13;;
25780;SDS011;13626;48.128;11.628;2023-07-24T02:52:03;11.48;;;6.40;;
25780;SDS011;13626;48.128;11.628;2023-07-24T02:54:31;11.40;;;6.93;;
25780;SDS011;13626;48.128;11.628;2023-07-24T02:56:58;12.00;;;6.20;;
25780;SDS011;13626;48.128;11.628;2023-07-24T02:59:25;12.52;;;7.38;;
25780;SDS011;13626;48.128;11.628;2023-07-24T03:01:52;10.15;;;6.60;;
25780;SDS011;13626;48.128;11.628;2023-07-24T03:04:20;10.27;;;7.13;;
25780;SDS011;13626;48.128;11.628;2023-07-24T03:06:48;10.35;;;7.57;;
25780;SDS011;13626;48.128;11.628;2023-07-24T03:09:15;9.85;;;6.55;;
25780;SDS011;13626;48.128;11.628;2023-07-24T03:11:42;12.90;;;6.90;;
25780;SDS011;13626;48.128;11.628;2023-07-24T03:14:09;12.25;;;6.93;;
25780;SDS011;13626;48.128;11.628;2023-07-24T03:16:37;16.40;;;8.23;;
25780;SDS011;13626;48.128;11.628;2023-07-24T03:19:04;14.13;;;7.97;;
25780;SDS011;13626;48.128;11.628;2023-07-24T03:21:31;14.98;;;7.63;;
25780;SDS011;13626;48.128;11.628;2023-07-24T03:23:58;13.77;;;8.07;;
25780;SDS011;13626;48.128;11.628;2023-07-24T03:26:26;12.82;;;7.78;;
25780;SDS011;13626;48.128;11.628;2023-07-24T03:28:53;16.77;;;8.57;;
25780;SDS011;13626;48.128;11.628;2023-07-24T03:31:20;13.27;;;7.82;;
25780;SDS011;13626;48.128;11.628;2023-07-24T03:33:48;13.43;;;9.10;;
25780;SDS011;13626;48.128;11.628;2023-07-24T03:36:15;11.98;;;8.25;;
25780;SDS011;13626;48.128;11.628;2023-07-24T03:38:42;13.63;;;8.05;;
25780;SDS011;13626;48.128;11.628;2023-07-24T03:41:09;13.63;;;8.70;;
25780;SDS011;13626;48.128;11.628;2023-07-24T03:43:37;13.65;;;8.02;;
25780;SDS011;13626;48.128;11.628;2023-07-24T03:46:04;13.70;;;8.52;;
25780;SDS011;13626;48.128;11.628;2023-07-24T03:48:31;15.40;;;8.52;;
25780;SDS011;13626;48.128;11.628;2023-07-24T03:50:59;15.90;;;8.65;;
25780;SDS011;13626;48.128;11.628;2023-07-24T03:53:26;15.57;;;8.38;;
25780;SDS011;13626;48.128;11.628;2023-07-24T03:55:54;14.18;;;8.82;;
25780;SDS011;13626;48.128;11.628;2023-07-24T03:58:21;15.13;;;9.35;;
25780;SDS011;13626;48.128;11.628;2023-07-24T04:00:48;13.52;;;8.32;;
25780;SDS011;13626;48.128;11.628;2023-07-24T04:03:15;14.40;;;8.95;;
25780;SDS011;13626;48.128;11.628;2023-07-24T04:05:43;14.40;;;8.80;;
25780;SDS011;13626;48.128;11.628;2023-07-24T04:08:10;13.73;;;8.70;;
25780;SDS011;13626;48.128;11.628;2023-07-24T04:10:38;13.25;;;8.63;;
25780;SDS011;13626;48.128;11.628;2023-07-24T04:13:05;13.05;;;8.95;;
25780;SDS011;13626;48.128;11.628;2023-07-24T04:15:32;15.35;;;9.45;;
25780;SDS011;13626;48.128;11.628;2023-07-24T04:18:00;14.63;;;9.05;;
25780;SDS011;13626;48.128;11.628;2023-07-24T04:20:27;13.95;;;8.52;;
25780;SDS011;13626;48.128;11.628;2023-07-24T04:22:54;13.52;;;8.63;;
25780;SDS011;13626;48.128;11.628;2023-07-24T04:25:22;15.15;;;9.10;;
25780;SDS011;13626;48.128;11.628;2023-07-24T04:27:49;13.50;;;9.20;;
25780;SDS011;13626;48.128;11.628;2023-07-24T04:30:16;14.45;;;9.43;;
25780;SDS011;13626;48.128;11.628;2023-07-24T04:32:43;14.90;;;8.93;;
25780;SDS011;13626;48.128;11.628;2023-07-24T04:35:12;16.25;;;9.50;;
25780;SDS011;13626;48.128;11.628;2023-07-24T04:37:39;15.27;;;9.40;;
25780;SDS011;13626;48.128;11.628;2023-07-24T04:40:06;15.57;;;9.48;;
25780;SDS011;13626;48.128;11.628;2023-07-24T04:42:34;13.82;;;8.73;;
25780;SDS011;13626;48.128;11.628;2023-07-24T04:45:01;16.23;;;8.93;;
25780;SDS011;13626;48.128;11.628;2023-07-24T04:47:29;13.63;;;9.13;;
25780;SDS011;13626;48.128;11.628;2023-07-24T04:49:56;16.35;;;9.52;;
25780;SDS011;13626;48.128;11.628;2023-07-24T04:52:23;15.85;;;9.68;;
25780;SDS011;13626;48.128;11.628;2023-07-24T04:54:50;15.05;;;8.98;;
25780;SDS011;13626;48.128;11.628;2023-07-24T04:57:18;13.73;;;8.88;;
25780;SDS011;13626;48.128;11.628;2023-07-24T04:59:45;14.88;;;9.18;;
25780;SDS011;13626;48.128;11.628;2023-07-24T05:02:12;15.32;;;9.50;;
25780;SDS011;13626;48.128;11.628;2023-07-24T05:04:40;15.43;;;9.63;;
25780;SDS011;13626;48.128;11.628;2023-07-24T05:07:07;13.82;;;9.65;;
25780;SDS011;13626;48.128;11.628;2023-07-24T05:09:35;13.73;;;9.13;;
25780;SDS011;13626;48.128;11.628;2023-07-24T05:12:02;15.20;;;8.75;;
25780;SDS011;13626;48.128;11.628;2023-07-24T05:14:29;16.05;;;9.23;;
25780;SDS011;13626;48.128;11.628;2023-07-24T05:16:57;11.73;;;8.07;;
25780;SDS011;13626;48.128;11.628;2023-07-24T05:19:24;15.93;;;9.23;;
25780;SDS011;13626;48.128;11.628;2023-07-24T05:21:51;14.50;;;8.80;;
25780;SDS011;13626;48.128;11.628;2023-07-24T05:24:18;11.88;;;8.38;;
25780;SDS011;13626;48.128;11.628;2023-07-24T05:26:45;12.45;;;8.23;;
25780;SDS011;13626;48.128;11.628;2023-07-24T05:29:13;13.75;;;9.15;;
25780;SDS011;13626;48.128;11.628;2023-07-24T05:31:40;13.30;;;8.15;;
25780;SDS011;13626;48.128;11.628;2023-07-24T05:34:07;13.40;;;8.65;;
25780;SDS011;13626;48.128;11.628;2023-07-24T05:36:35;11.75;;;8.43;;
25780;SDS011;13626;48.128;11.628;2023-07-24T05:39:02;13.70;;;8.48;;
25780;SDS011;13626;48.128;11.628;2023-07-24T05:41:29;12.90;;;8.40;;
25780;SDS011;13626;48.128;11.628;2023-07-24T05:43:56;13.20;;;8.90;;
25780;SDS011;13626;48.128;11.628;2023-07-24T05:46:24;12.68;;;8.10;;
25780;SDS011;13626;48.128;11.628;2023-07-24T05:48:51;13.48;;;8.30;;
25780;SDS011;13626;48.128;11.628;2023-07-24T05:51:18;13.18;;;7.75;;
25780;SDS011;13626;48.128;11.628;2023-07-24T05:53:46;12.52;;;7.80;;
25780;SDS011;13626;48.128;11.628;2023-07-24T05:56:13;11.93;;;7.82;;
25780;SDS011;13626;48.128;11.628;2023-07-24T05:58:40;11.90;;;7.80;;
25780;SDS011;13626;48.128;11.628;2023-07-24T06:01:07;13.55;;;8.43;;
25780;SDS011;13626;48.128;11.628;2023-07-24T06:03:36;12.98;;;8.27;;
25780;SDS011;13626;48.128;11.628;2023-07-24T06:06:05;12.18;;;8.00;;
25780;SDS011;13626;48.128;11.628;2023-07-24T06:08:32;11.32;;;7.72;;
25780;SDS011;13626;48.128;11.628;2023-07-24T06:10:59;13.73;;;8.20;;
25780;SDS011;13626;48.128;11.628;2023-07-24T06:13:27;11.75;;;7.93;;
25780;SDS011;13626;48.128;11.628;2023-07-24T06:15:54;13.15;;;8.55;;
25780;SDS011;13626;48.128;11.628;2023-07-24T06:18:21;12.90;;;8.85;;
25780;SDS011;13626;48.128;11.628;2023-07-24T06:20:52;14.30;;;8.20;;
25780;SDS011;13626;48.128;11.628;2023-07-24T06:23:19;13.95;;;7.85;;
25780;SDS011;13626;48.128;11.628;2023-07-24T06:25:47;11.95;;;8.30;;
25780;SDS011;13626;48.128;11.628;2023-07-24T06:28:14;14.45;;;8.75;;
25780;SDS011;13626;48.128;11.628;2023-07-24T06:30:41;12.20;;;7.45;;
25780;SDS011;13626;48.128;11.628;2023-07-24T06:33:09;12.50;;;7.80;;
25780;SDS011;13626;48.128;11.628;2023-07-24T06:35:36;14.02;;;9.50;;
25780;SDS011;13626;48.128;11.628;2023-07-24T06:38:03;12.50;;;8.40;;
25780;SDS011;13626;48.128;11.628;2023-07-24T06:40:31;12.63;;;8.90;;
25780;SDS011;13626;48.128;11.628;2023-07-24T06:42:58;13.63;;;8.75;;
25780;SDS011;13626;48.128;11.628;2023-07-24T06:45:25;12.15;;;8.15;;
25780;SDS011;13626;48.128;11.628;2023-07-24T06:47:53;14.60;;;9.32;;
25780;SDS011;13626;48.128;11.628;2023-07-24T06:50:20;14.35;;;9.02;;
25780;SDS011;13626;48.128;11.628;2023-07-24T06:52:47;12.23;;;8.75;;
25780;SDS011;13626;48.128;11.628;2023-07-24T06:55:17;13.48;;;8.43;;
25780;SDS011;13626;48.128;11.628;2023-07-24T06:57:44;12.13;;;8.55;;
25780;SDS011;13626;48.128;11.628;2023-07-24T07:00:12;12.00;;;8.50;;
25780;SDS011;13626;48.128;11.628;2023-07-24T07:02:39;15.15;;;9.25;;
25780;SDS011;13626;48.128;11.628;2023-07-24T07:05:08;13.70;;;9.00;;
25780;SDS011;13626;48.128;11.628;2023-07-24T07:07:35;13.05;;;9.00;;
25780;SDS011;13626;48.128;11.628;2023-07-24T07:10:02;13.52;;;8.98;;
25780;SDS011;13626;48.128;11.628;2023-07-24T07:12:31;11.50;;;9.13;;
25780;SDS011;13626;48.128;11.628;2023-07-24T07:14:58;11.63;;;8.50;;
25780;SDS011;13626;48.128;11.628;2023-07-24T07:17:26;13.48;;;8.88;;
25780;SDS011;13626;48.128;11.628;2023-07-24T07:19:53;10.80;;;8.68;;
25780;SDS011;13626;48.128;11.628;2023-07-24T07:22:22;11.00;;;8.82;;
25780;SDS011;13626;48.128;11.628;2023-07-24T07:24:49;11.45;;;8.88;;
25780;SDS011;13626;48.128;11.628;2023-07-24T07:27:17;13.07;;;9.60;;
25780;SDS011;13626;48.128;11.628;2023-07-24T07:29:44;11.57;;;8.82;;
25780;SDS011;13626;48.128;11.628;2023-07-24T07:32:12;11.85;;;9.40;;
25780;SDS011;13626;48.128;11.628;2023-07-24T07:34:39;13.68;;;8.98;;
25780;SDS011;13626;48.128;11.628;2023-07-24T07:37:06;11.05;;;8.70;;
25780;SDS011;13626;48.128;11.628;2023-07-24T07:39:34;13.23;;;9.75;;
25780;SDS011;13626;48.128;11.628;2023-07-24T07:42:02;15.20;;;9.50;;
25780;SDS011;13626;48.128;11.628;2023-07-24T07:44:43;13.27;;;9.07;;
25780;SDS011;13626;48.128;11.628;2023-07-24T07:47:10;12.00;;;9.18;;
25780;SDS011;13626;48.128;11.628;2023-07-24T07:49:38;11.70;;;8.48;;
25780;SDS011;13626;48.128;11.628;2023-07-24T07:52:06;13.43;;;8.63;;
25780;SDS011;13626;48.128;11.628;2023-07-24T07:54:33;13.18;;;8.20;;
25780;SDS011;13626;48.128;11.628;2023-07-24T07:57:01;13.80;;;8.75;;
25780;SDS011;13626;48.128;11.628;2023-07-24T07:59:28;15.50;;;8.88;;
25780;SDS011;13626;48.128;11.628;2023-07-24T08:01:55;15.18;;;9.20;;
25780;SDS011;13626;48.128;11.628;2023-07-24T08:04:22;13.10;;;8.80;;
25780;SDS011;13626;48.128;11.628;2023-07-24T08:06:49;14.27;;;9.00;;
25780;SDS011;13626;48.128;11.628;2023-07-24T08:09:17;14.35;;;9.10;;
25780;SDS011;13626;48.128;11.628;2023-07-24T08:11:44;12.23;;;8.75;;
25780;SDS011;13626;48.128;11.628;2023-07-24T08:14:11;12.73;;;9.02;;
25780;SDS011;13626;48.128;11.628;2023-07-24T08:16:39;18.98;;;10.00;;
25780;SDS011;13626;48.128;11.628;2023-07-24T08:19:06;13.90;;;8.63;;
25780;SDS011;13626;48.128;11.628;2023-07-24T08:21:33;14.32;;;9.00;;
25780;SDS011;13626;48.128;11.628;2023-07-24T08:24:01;14.27;;;9.13;;
25780;SDS011;13626;48.128;11.628;2023-07-24T08:26:28;13.50;;;9.00;;
25780;SDS011;13626;48.128;11.628;2023-07-24T08:28:56;13.60;;;8.48;;
25780;SDS011;13626;48.128;11.628;2023-07-24T08:31:24;13.32;;;8.48;;
25780;SDS011;13626;48.128;11.628;2023-07-24T08:33:51;14.05;;;8.75;;
25780;SDS011;13626;48.128;11.628;2023-07-24T08:36:20;13.40;;;8.68;;
25780;SDS011;13626;48.128;11.628;2023-07-24T08:38:48;12.27;;;8.93;;
25780;SDS011;13626;48.128;11.628;2023-07-24T08:41:15;13.80;;;8.02;;
25780;SDS011;13626;48.128;11.628;2023-07-24T08:43:42;11.68;;;7.93;;
25780;SDS011;13626;48.128;11.628;2023-07-24T08:46:10;10.13;;;7.32;;
25780;SDS011;13626;48.128;11.628;2023-07-24T08:48:39;10.68;;;7.53;;
25780;SDS011;13626;48.128;11.628;2023-07-24T08:51:10;12.02;;;7.57;;
25780;SDS011;13626;48.128;11.628;2023-07-24T08:53:39;9.88;;;6.72;;
25780;SDS011;13626;48.128;11.628;2023-07-24T08:56:07;9.98;;;7.18;;
25780;SDS011;13626;48.128;11.628;2023-07-24T08:58:35;13.90;;;7.60;;
25780;SDS011;13626;48.128;11.628;2023-07-24T09:01:03;15.23;;;7.65;;
25780;SDS011;13626;48.128;11.628;2023-07-24T09:03:31;11.75;;;7.90;;
25780;SDS011;13626;48.128;11.628;2023-07-24T09:05:59;12.70;;;7.72;;
25780;SDS011;13626;48.128;11.628;2023-07-24T09:08:40;11.18;;;7.43;;
25780;SDS011;13626;48.128;11.628;2023-07-24T09:11:08;10.85;;;7.18;;
25780;SDS011;13626;48.128;11.628;2023-07-24T09:13:36;11.70;;;7.25;;
25780;SDS011;13626;48.128;11.628;2023-07-24T09:16:07;11.68;;;7.18;;
25780;SDS011;13626;48.128;11.628;2023-07-24T09:18:38;14.55;;;8.10;;
25780;SDS011;13626;48.128;11.628;2023-07-24T09:21:07;11.10;;;7.55;;
25780;SDS011;13626;48.128;11.628;2023-07-24T09:23:36;15.52;;;8.13;;
25780;SDS011;13626;48.128;11.628;2023-07-24T09:26:10;10.98;;;7.93;;
25780;SDS011;13626;48.128;11.628;2023-07-24T09:28:41;13.80;;;8.65;;
25780;SDS011;13626;48.128;11.628;2023-07-24T09:31:21;13.07;;;7.93;;
25780;SDS011;13626;48.128;11.628;2023-07-24T09:33:51;13.82;;;7.03;;
25780;SDS011;13626;48.128;11.628;2023-07-24T09:36:22;11.40;;;7.78;;
25780;SDS011;13626;48.128;11.628;2023-07-24T09:38:59;12.15;;;7.53;;
25780;SDS011;13626;48.128;11.628;2023-07-24T09:41:29;9.95;;;6.63;;
25780;SDS011;13626;48.128;11.628;2023-07-24T09:43:58;11.15;;;7.05;;
25780;SDS011;13626;48.128;11.628;2023-07-24T09:46:25;7.82;;;6.03;;
25780;SDS011;13626;48.128;11.628;2023-07-24T09:48:55;11.02;;;7.00;;
25780;SDS011;13626;48.128;11.628;2023-07-24T09:51:25;8.55;;;6.13;;
25780;SDS011;13626;48.128;11.628;2023-07-24T09:53:58;7.80;;;6.00;;
25780;SDS011;13626;48.128;11.628;2023-07-24T09:56:28;7.60;;;5.68;;
25780;SDS011;13626;48.128;11.628;2023-07-24T09:59:15;9.55;;;5.20;;
25780;SDS011;13626;48.128;11.628;2023-07-24T10:01:43;6.10;;;4.50;;
25780;SDS011;13626;48.128;11.628;2023-07-24T10:04:10;6.63;;;4.68;;
25780;SDS011;13626;48.128;11.628;2023-07-24T10:06:38;7.43;;;5.05;;
25780;SDS011;13626;48.128;11.628;2023-07-24T10:09:05;6.55;;;4.72;;
25780;SDS011;13626;48.128;11.628;2023-07-24T10:11:35;7.88;;;5.28;;
25780;SDS011;13626;48.128;11.628;2023-07-24T10:14:02;7.13;;;5.05;;
25780;SDS011;13626;48.128;11.628;2023-07-24T10:16:29;7.30;;;5.00;;
25780;SDS011;13626;48.128;11.628;2023-07-24T10:18:57;8.50;;;5.32;;
25780;SDS011;13626;48.128;11.628;2023-07-24T10:21:27;8.57;;;5.10;;
25780;SDS011;13626;48.128;11.628;2023-07-24T10:23:59;6.00;;;4.60;;
25780;SDS011;13626;48.128;11.628;2023-07-24T10:26:27;6.53;;;4.82;;
25780;SDS011;13626;48.128;11.628;2023-07-24T10:28:54;5.63;;;4.63;;
25780;SDS011;13626;48.128;11.628;2023-07-24T10:31:22;5.85;;;4.47;;
25780;SDS011;13626;48.128;11.628;2023-07-24T10:33:50;5.95;;;4.45;;
25780;SDS011;13626;48.128;11.628;2023-07-24T10:36:18;4.90;;;3.65;;
25780;SDS011;13626;48.128;11.628;2023-07-24T10:38:51;5.07;;;4.40;;
25780;SDS011;13626;48.128;11.628;2023-07-24T10:41:19;5.35;;;4.82;;
25780;SDS011;13626;48.128;11.628;2023-07-24T10:43:47;7.05;;;4.07;;
25780;SDS011;13626;48.128;11.628;2023-07-24T10:46:15;4.72;;;3.85;;
25780;SDS011;13626;48.128;11.628;2023-07-24T10:48:44;6.93;;;4.45;;
25780;SDS011;13626;48.128;11.628;2023-07-24T10:51:12;5.38;;;4.45;;
25780;SDS011;13626;48.128;11.628;2023-07-24T10:53:46;7.55;;;4.97;;
25780;SDS011;13626;48.128;11.628;2023-07-24T10:56:15;5.82;;;4.70;;
25780;SDS011;13626;48.128;11.628;2023-07-24T10:58:42;6.25;;;4.50;;
25780;SDS011;13626;48.128;11.628;2023-07-24T11:01:10;7.13;;;4.88;;
25780;SDS011;13626;48.128;11.628;2023-07-24T11:03:40;7.45;;;5.13;;
25780;SDS011;13626;48.128;11.628;2023-07-24T11:06:19;5.65;;;4.47;;
25780;SDS011;13626;48.128;11.628;2023-07-24T11:08:55;8.10;;;4.90;;
25780;SDS011;13626;48.128;11.628;2023-07-24T11:11:42;7.15;;;4.60;;
25780;SDS011;13626;48.128;11.628;2023-07-24T11:14:13;5.75;;;4.85;;
25780;SDS011;13626;48.128;11.628;2023-07-24T11:16:48;5.75;;;4.53;;
25780;SDS011;13626;48.128;11.628;2023-07-24T11:19:28;9.32;;;5.28;;
25780;SDS011;13626;48.128;11.628;2023-07-24T11:21:56;7.47;;;4.80;;
25780;SDS011;13626;48.128;11.628;2023-07-24T11:24:24;5.72;;;4.72;;
25780;SDS011;13626;48.128;11.628;2023-07-24T11:26:54;8.48;;;4.93;;
25780;SDS011;13626;48.128;11.628;2023-07-24T11:29:23;7.00;;;5.35;;
25780;SDS011;13626;48.128;11.628;2023-07-24T11:31:54;7.30;;;5.10;;
25780;SDS011;13626;48.128;11.628;2023-07-24T11:34:23;6.68;;;5.30;;
25780;SDS011;13626;48.128;11.628;2023-07-24T11:36:51;6.97;;;5.13;;
25780;SDS011;13626;48.128;11.628;2023-07-24T11:39:22;7.60;;;5.80;;
25780;SDS011;13626;48.128;11.628;2023-07-24T11:41:50;7.38;;;5.93;;
25780;SDS011;13626;48.128;11.628;2023-07-24T11:44:27;5.60;;;4.80;;
25780;SDS011;13626;48.128;11.628;2023-07-24T11:47:07;6.97;;;5.05;;
25780;SDS011;13626;48.128;11.628;2023-07-24T11:49:37;8.38;;;5.53;;
25780;SDS011;13626;48.128;11.628;2023-07-24T11:52:15;8.52;;;5.38;;
25780;SDS011;13626;48.128;11.628;2023-07-24T11:54:42;7.40;;;4.70;;
25780;SDS011;13626;48.128;11.628;2023-07-24T11:57:16;6.55;;;5.20;;
25780;SDS011;13626;48.128;11.628;2023-07-24T11:59:46;6.35;;;4.95;;
25780;SDS011;13626;48.128;11.628;2023-07-24T12:02:14;6.72;;;4.88;;
25780;SDS011;13626;48.128;11.628;2023-07-24T12:04:43;8.07;;;4.72;;
25780;SDS011;13626;48.128;11.628;2023-07-24T12:07:11;5.80;;;4.88;;
25780;SDS011;13626;48.128;11.628;2023-07-24T12:09:38;6.32;;;4.65;;
25780;SDS011;13626;48.128;11.628;2023-07-24T12:12:15;6.30;;;5.00;;
25780;SDS011;13626;48.128;11.628;2023-07-24T12:14:45;7.05;;;4.80;;
25780;SDS011;13626;48.128;11.628;2023-07-24T12:17:17;7.03;;;4.70;;
25780;SDS011;13626;48.128;11.628;2023-07-24T12:19:46;5.63;;;4.57;;
25780;SDS011;13626;48.128;11.628;2023-07-24T12:22:18;11.40;;;5.97;;
25780;SDS011;13626;48.128;11.628;2023-07-24T12:24:50;7.60;;;4.88;;
25780;SDS011;13626;48.128;11.628;2023-07-24T12:27:21;8.60;;;5.10;;
25780;SDS011;13626;48.128;11.628;2023-07-24T12:29:49;6.47;;;4.75;;
25780;SDS011;13626;48.128;11.628;2023-07-24T12:32:34;7.47;;;5.18;;
25780;SDS011;13626;48.128;11.628;2023-07-24T12:35:10;7.35;;;4.78;;
25780;SDS011;13626;48.128;11.628;2023-07-24T12:37:43;5.43;;;4.10;;
25780;SDS011;13626;48.128;11.628;2023-07-24T12:40:14;6.32;;;5.13;;
25780;SDS011;13626;48.128;11.628;2023-07-24T12:42:54;7.75;;;5.13;;
25780;SDS011;13626;48.128;11.628;2023-07-24T12:45:41;7.50;;;5.38;;
25780;SDS011;13626;48.128;11.628;2023-07-24T12:48:21;6.97;;;5.40;;
25780;SDS011;13626;48.128;11.628;2023-07-24T12:51:11;7.97;;;5.88;;
25780;SDS011;13626;48.128;11.628;2023-07-24T12:53:42;7.38;;;5.47;;
25780;SDS011;13626;48.128;11.628;2023-07-24T12:56:32;9.23;;;5.50;;
25780;SDS011;13626;48.128;11.628;2023-07-24T12:59:01;6.88;;;4.82;;
25780;SDS011;13626;48.128;11.628;2023-07-24T13:01:32;8.88;;;5.78;;
25780;SDS011;13626;48.128;11.628;2023-07-24T13:04:11;8.20;;;5.45;;
25780;SDS011;13626;48.128;11.628;2023-07-24T13:06:53;8.18;;;5.55;;
25780;SDS011;13626;48.128;11.628;2023-07-24T13:09:21;6.03;;;4.75;;
25780;SDS011;13626;48.128;11.628;2023-07-24T13:12:04;7.20;;;5.03;;
25780;SDS011;13626;48.128;11.628;2023-07-24T13:14:33;9.50;;;4.70;;
25780;SDS011;13626;48.128;11.628;2023-07-24T13:17:09;8.82;;;5.57;;
25780;SDS011;13626;48.128;11.628;2023-07-24T13:19:39;8.55;;;5.07;;
25780;SDS011;13626;48.128;11.628;2023-07-24T13:22:15;8.57;;;4.88;;
25780;SDS011;13626;48.128;11.628;2023-07-24T13:24:52;8.05;;;4.93;;
25780;SDS011;13626;48.128;11.628;2023-07-24T13:27:23;5.93;;;4.10;;
25780;SDS011;13626;48.128;11.628;2023-07-24T13:29:58;7.45;;;4.80;;
25780;SDS011;13626;48.128;11.628;2023-07-24T13:32:26;7.32;;;4.57;;
25780;SDS011;13626;48.128;11.628;2023-07-24T13:35:05;6.53;;;4.72;;
25780;SDS011;13626;48.128;11.628;2023-07-24T13:37:32;8.18;;;4.97;;
25780;SDS011;13626;48.128;11.628;2023-07-24T13:39:59;7.25;;;4.93;;
25780;SDS011;13626;48.128;11.628;2023-07-24T13:42:26;6.30;;;4.68;;
25780;SDS011;13626;48.128;11.628;2023-07-24T13:44:54;8.75;;;5.60;;
25780;SDS011;13626;48.128;11.628;2023-07-24T13:47:21;6.85;;;4.75;;
25780;SDS011;13626;48.128;11.628;2023-07-24T13:49:48;6.40;;;4.80;;
25780;SDS011;13626;48.128;11.628;2023-07-24T13:52:16;6.68;;;4.78;;
25780;SDS011;13626;48.128;11.628;2023-07-24T13:54:43;6.90;;;4.60;;
25780;SDS011;13626;48.128;11.628;2023-07-24T13:57:10;8.20;;;4.75;;
25780;SDS011;13626;48.128;11.628;2023-07-24T13:59:37;6.78;;;4.60;;
25780;SDS011;13626;48.128;11.628;2023-07-24T14:02:06;8.07;;;5.20;;
25780;SDS011;13626;48.128;11.628;2023-07-24T14:04:33;8.45;;;5.18;;
25780;SDS011;13626;48.128;11.628;2023-07-24T14:07:00;7.40;;;5.20;;
25780;SDS011;13626;48.128;11.628;2023-07-24T14:09:27;9.20;;;4.88;;
25780;SDS011;13626;48.128;11.628;2023-07-24T14:11:54;6.43;;;4.40;;
25780;SDS011;13626;48.128;11.628;2023-07-24T14:14:22;5.07;;;3.55;;
25780;SDS011;13626;48.128;11.628;2023-07-24T14:16:52;5.70;;;3.15;;
25780;SDS011;13626;48.128;11.628;2023-07-24T14:19:19;5.57;;;3.53;;
25780;SDS011;13626;48.128;11.628;2023-07-24T14:21:47;4.07;;;3.03;;
25780;SDS011;13626;48.128;11.628;2023-07-24T14:24:14;4.43;;;3.13;;
25780;SDS011;13626;48.128;11.628;2023-07-24T14:26:41;6.32;;;3.75;;
25780;SDS011;13626;48.128;11.628;2023-07-24T14:29:11;5.45;;;4.20;;
25780;SDS011;13626;48.128;11.628;2023-07-24T14:31:38;5.43;;;3.67;;
25780;SDS011;13626;48.128;11.628;2023-07-24T14:34:05;4.38;;;3.20;;
25780;SDS011;13626;48.128;11.628;2023-07-24T14:36:37;5.10;;;3.55;;
25780;SDS011;13626;48.128;11.628;2023-07-24T14:39:04;4.38;;;3.72;;
25780;SDS011;13626;48.128;11.628;2023-07-24T14:41:32;5.55;;;3.53;;